Time;durP1;ratioP1;P1;durP2;ratioP2;P2;SDS_P1;SDS_P2;PMS_P1;PMS_P2;Temp;Humidity;BMP_temperature;BMP_pressure;BME280_temperature;BME280_humidity;BME280_pressure;Samples;Min_cycle;Max_cycle;Signal;HPM_P1;HPM_P2
2021/08/13 00:02:20;;;;;;;;;;;24.80;72.70;;;;;;5219347;28;19929;-90
2021/08/13 00:04:52;;;;;;;;;;;24.80;72.70;;;;;;5206798;28;19924;-93
2021/08/13 00:07:25;;;;;;;;;;;24.80;72.70;;;;;;5223063;28;19936;-91
2021/08/13 00:09:57;;;;;;;;;;;24.70;72.60;;;;;;5205298;28;19924;-90
2021/08/13 00:12:30;;;;;;;;;;;24.80;72.80;;;;;;5234406;28;19925;-90
2021/08/13 00:15:03;;;;;;;;;;;24.70;72.70;;;;;;5219577;28;19940;-89
2021/08/13 00:17:36;;;;;;;;;;;24.80;72.80;;;;;;5207797;28;19940;-90
2021/08/13 00:20:08;;;;;;;;;;;24.80;72.90;;;;;;5234809;28;19944;-92
2021/08/13 00:22:41;;;;;;;;;;;24.80;72.90;;;;;;5192906;28;19951;-90
2021/08/13 00:25:13;;;;;;;;;;;24.80;72.80;;;;;;5190474;28;19935;-90
2021/08/13 00:27:46;;;;;;;;;;;24.80;72.80;;;;;;5237268;28;19925;-90
2021/08/13 00:30:20;;;;;;;;;;;24.80;72.80;;;;;;5207001;28;19924;-93
2021/08/13 00:32:52;;;;;;;;;;;24.80;72.80;;;;;;5201676;28;19931;-90
2021/08/13 00:35:25;;;;;;;;;;;24.70;72.80;;;;;;5204535;28;19939;-90
2021/08/13 00:38:00;;;;;;;;;;;24.80;72.90;;;;;;5204829;28;19928;-92
2021/08/13 00:40:33;;;;;;;;;;;24.80;72.90;;;;;;5216724;28;19935;-91
2021/08/13 00:43:09;;;;;;;;;;;24.70;72.90;;;;;;5202592;28;19929;-91
2021/08/13 00:45:41;;;;;;;;;;;24.70;72.90;;;;;;5210742;28;19932;-91
2021/08/13 00:48:18;;;;;;;;;;;24.80;72.90;;;;;;5192783;28;20396;-91
2021/08/13 00:50:56;;;;;;;;;;;24.80;72.90;;;;;;5204125;28;20301;-89
2021/08/13 00:53:28;;;;;;;;;;;24.80;73.00;;;;;;5189469;28;19924;-92
2021/08/13 00:56:01;;;;;;;;;;;24.70;73.00;;;;;;5187993;28;19944;-88
2021/08/13 00:59:09;;;;;;;;;;;24.70;73.00;;;;;;5205881;28;19929;-89
2021/08/13 01:01:56;;;;;;;;;;;24.70;73.00;;;;;;5189625;28;19947;-89
2021/08/13 01:04:30;;;;;;;;;;;24.80;73.10;;;;;;5231730;28;19936;-91
2021/08/13 01:07:07;;;;;;;;;;;24.70;73.00;;;;;;5203215;28;19932;-92
2021/08/13 01:09:40;;;;;;;;;;;24.70;73.00;;;;;;5198294;28;19931;-92
2021/08/13 01:12:37;;;;;;;;;;;24.70;73.00;;;;;;5187641;28;19932;-89
2021/08/13 01:15:11;;;;;;;;;;;24.70;73.00;;;;;;5221871;28;19925;-88
2021/08/13 01:17:53;;;;;;;;;;;24.70;73.00;;;;;;5221679;28;19925;-89
2021/08/13 01:20:25;;;;;;;;;;;24.70;73.00;;;;;;5216832;28;19943;-91
2021/08/13 01:23:00;;;;;;;;;;;24.70;73.00;;;;;;5205988;28;19928;-89
2021/08/13 01:25:39;;;;;;;;;;;24.80;73.10;;;;;;5232069;28;19928;-90
2021/08/13 01:28:31;;;;;;;;;;;24.70;73.10;;;;;;5190706;28;20309;-90
2021/08/13 01:31:07;;;;;;;;;;;24.70;73.10;;;;;;5208822;28;19932;-91
2021/08/13 01:33:43;;;;;;;;;;;24.70;73.00;;;;;;5223442;28;19928;-92
2021/08/13 01:36:17;;;;;;;;;;;24.70;73.10;;;;;;5233796;28;19925;-90
2021/08/13 01:38:51;;;;;;;;;;;24.70;73.10;;;;;;5237861;28;19952;-89
2021/08/13 01:41:24;;;;;;;;;;;24.70;73.10;;;;;;5246733;28;19928;-90
2021/08/13 01:43:57;;;;;;;;;;;24.70;73.10;;;;;;5210469;28;19932;-90
2021/08/13 01:46:30;;;;;;;;;;;24.70;73.10;;;;;;5211920;28;19931;-89
2021/08/13 01:49:05;;;;;;;;;;;24.70;73.20;;;;;;5226366;28;19928;-90
2021/08/13 01:51:40;;;;;;;;;;;24.70;73.20;;;;;;5224467;28;20386;-92
2021/08/13 01:54:14;;;;;;;;;;;24.70;73.20;;;;;;5220454;28;19932;-87
2021/08/13 01:56:49;;;;;;;;;;;24.70;73.20;;;;;;5209241;28;20401;-91
2021/08/13 01:59:23;;;;;;;;;;;24.70;73.10;;;;;;5191474;28;19939;-92
2021/08/13 02:01:58;;;;;;;;;;;24.70;73.10;;;;;;5205082;28;19932;-89
2021/08/13 02:04:35;;;;;;;;;;;24.70;73.20;;;;;;5217715;28;19952;-89
2021/08/13 02:07:15;;;;;;;;;;;24.70;73.20;;;;;;5239118;28;20392;-89
2021/08/13 02:09:48;;;;;;;;;;;24.70;73.20;;;;;;5193194;28;19924;-90
2021/08/13 02:12:27;;;;;;;;;;;24.70;73.20;;;;;;5211157;28;19931;-92
2021/08/13 02:15:05;;;;;;;;;;;24.70;73.20;;;;;;5222554;28;19924;-93
2021/08/13 02:17:41;;;;;;;;;;;24.70;73.30;;;;;;5255473;28;19924;-90
2021/08/13 02:20:15;;;;;;;;;;;24.70;73.30;;;;;;5227036;28;19924;-89
2021/08/13 02:22:51;;;;;;;;;;;24.70;73.30;;;;;;5248736;28;19932;-90
2021/08/13 02:25:24;;;;;;;;;;;24.70;73.30;;;;;;5208065;28;19924;-90
2021/08/13 02:27:57;;;;;;;;;;;24.70;73.20;;;;;;5202138;28;19947;-91
2021/08/13 02:30:31;;;;;;;;;;;24.70;73.20;;;;;;5207653;28;19936;-91
2021/08/13 02:33:05;;;;;;;;;;;24.70;73.20;;;;;;5218279;28;19924;-91
2021/08/13 02:35:37;;;;;;;;;;;24.70;73.30;;;;;;5197069;28;20275;-92
2021/08/13 02:38:19;;;;;;;;;;;24.70;73.20;;;;;;5209459;28;19932;-90
2021/08/13 02:40:52;;;;;;;;;;;24.70;73.30;;;;;;5208028;28;19932;-91
2021/08/13 02:43:33;;;;;;;;;;;24.70;73.20;;;;;;5220937;28;19928;-89
2021/08/13 02:46:09;;;;;;;;;;;24.70;73.30;;;;;;5210820;28;20374;-88
2021/08/13 02:48:43;;;;;;;;;;;24.70;73.20;;;;;;5208394;28;19932;-90
2021/08/13 02:51:19;;;;;;;;;;;24.70;73.20;;;;;;5193104;28;20414;-89
2021/08/13 02:53:54;;;;;;;;;;;24.70;73.20;;;;;;5206056;28;19925;-89
2021/08/13 02:56:29;;;;;;;;;;;24.70;73.20;;;;;;5219183;28;20385;-90
2021/08/13 02:59:03;;;;;;;;;;;24.70;73.20;;;;;;5204974;28;19939;-90
2021/08/13 03:01:38;;;;;;;;;;;24.70;73.20;;;;;;5195477;28;19928;-91
2021/08/13 03:04:13;;;;;;;;;;;24.70;73.20;;;;;;5207379;28;19932;-89
2021/08/13 03:06:47;;;;;;;;;;;24.70;73.30;;;;;;5217186;28;19928;-89
2021/08/13 03:09:20;;;;;;;;;;;24.70;73.50;;;;;;5224405;28;19925;-86
2021/08/13 03:11:53;;;;;;;;;;;24.70;73.50;;;;;;5216537;28;19939;-87
2021/08/13 03:14:26;;;;;;;;;;;24.70;73.40;;;;;;5204543;28;19948;-87
2021/08/13 03:16:59;;;;;;;;;;;24.70;73.30;;;;;;5207540;28;20329;-88
2021/08/13 03:19:32;;;;;;;;;;;24.70;73.30;;;;;;5183376;28;19925;-88
2021/08/13 03:22:05;;;;;;;;;;;24.70;73.30;;;;;;5206390;28;19940;-86
2021/08/13 03:24:39;;;;;;;;;;;24.70;73.10;;;;;;5220330;28;19925;-89
2021/08/13 03:27:12;;;;;;;;;;;24.70;72.90;;;;;;5207873;28;19932;-89
2021/08/13 03:29:44;;;;;;;;;;;24.70;72.80;;;;;;5187455;28;19928;-86
2021/08/13 03:32:17;;;;;;;;;;;24.60;72.70;;;;;;5202512;28;19936;-88
2021/08/13 03:34:50;;;;;;;;;;;24.60;72.70;;;;;;5206011;28;19924;-89
2021/08/13 03:37:23;;;;;;;;;;;24.60;72.60;;;;;;5221962;28;19940;-88
2021/08/13 03:39:55;;;;;;;;;;;24.60;72.60;;;;;;5198263;28;19925;-87
2021/08/13 03:42:28;;;;;;;;;;;24.60;72.50;;;;;;5206158;28;19929;-87
2021/08/13 03:45:00;;;;;;;;;;;24.60;72.50;;;;;;5222821;28;19925;-88
2021/08/13 03:47:33;;;;;;;;;;;24.60;72.50;;;;;;5190528;28;19931;-89
2021/08/13 03:50:07;;;;;;;;;;;24.60;72.40;;;;;;5204188;28;20410;-88
2021/08/13 03:52:39;;;;;;;;;;;24.60;72.40;;;;;;5233992;28;20638;-88
2021/08/13 03:55:15;;;;;;;;;;;24.50;72.50;;;;;;5202656;28;19935;-89
2021/08/13 03:57:47;;;;;;;;;;;24.50;72.50;;;;;;5206498;28;19929;-87
2021/08/13 04:00:19;;;;;;;;;;;24.50;73.10;;;;;;5202385;28;19932;-87
2021/08/13 04:02:55;;;;;;;;;;;24.50;72.40;;;;;;5221268;28;19928;-86
2021/08/13 04:05:30;;;;;;;;;;;24.50;72.40;;;;;;5212687;28;19951;-88
2021/08/13 04:08:04;;;;;;;;;;;24.50;72.40;;;;;;5229373;28;20175;-86
2021/08/13 04:10:37;;;;;;;;;;;24.50;72.30;;;;;;5205490;28;19928;-86
2021/08/13 04:13:10;;;;;;;;;;;24.40;72.30;;;;;;5206908;28;19936;-87
2021/08/13 04:15:49;;;;;;;;;;;24.40;72.40;;;;;;5217213;28;19932;-87
2021/08/13 04:18:22;;;;;;;;;;;24.40;72.40;;;;;;5222773;28;19939;-86
2021/08/13 04:20:55;;;;;;;;;;;24.40;72.30;;;;;;5205869;28;19929;-87
2021/08/13 04:23:28;;;;;;;;;;;24.40;72.30;;;;;;5245977;28;19925;-87
2021/08/13 04:26:01;;;;;;;;;;;24.40;72.40;;;;;;5192342;28;19928;-86
2021/08/13 04:28:35;;;;;;;;;;;24.40;72.40;;;;;;5210764;28;20378;-88
2021/08/13 04:31:08;;;;;;;;;;;24.40;72.50;;;;;;5221346;28;20402;-88
2021/08/13 04:33:41;;;;;;;;;;;24.40;72.60;;;;;;5205058;28;20317;-90
2021/08/13 04:36:18;;;;;;;;;;;24.40;72.60;;;;;;5210359;28;19925;-86
2021/08/13 04:38:51;;;;;;;;;;;24.40;72.60;;;;;;5222784;28;19936;-87
2021/08/13 04:41:25;;;;;;;;;;;24.40;72.70;;;;;;5207590;28;19924;-87
2021/08/13 04:43:58;;;;;;;;;;;24.40;72.80;;;;;;5202036;28;19929;-87
2021/08/13 04:46:31;;;;;;;;;;;24.30;72.80;;;;;;5196292;28;19948;-87
2021/08/13 04:49:04;;;;;;;;;;;24.30;72.90;;;;;;5235026;28;19935;-86
2021/08/13 04:51:37;;;;;;;;;;;24.40;73.10;;;;;;5219632;28;20239;-86
2021/08/13 04:54:10;;;;;;;;;;;24.30;73.10;;;;;;5218234;28;19948;-86
2021/08/13 04:56:44;;;;;;;;;;;24.30;73.30;;;;;;5205020;28;20091;-89
2021/08/13 04:59:18;;;;;;;;;;;24.30;73.40;;;;;;5233196;28;19928;-85
2021/08/13 05:01:55;;;;;;;;;;;24.30;73.60;;;;;;5189494;28;19925;-87
2021/08/13 05:04:27;;;;;;;;;;;24.30;73.70;;;;;;5191120;28;19939;-88
2021/08/13 05:07:02;;;;;;;;;;;24.30;73.80;;;;;;5215961;28;19928;-87
2021/08/13 05:09:35;;;;;;;;;;;24.30;73.90;;;;;;5205306;28;20398;-86
2021/08/13 05:12:08;;;;;;;;;;;24.30;74.00;;;;;;5211425;28;19947;-86
2021/08/13 05:14:41;;;;;;;;;;;24.30;74.20;;;;;;5216550;28;19936;-88
2021/08/13 05:17:13;;;;;;;;;;;24.30;74.30;;;;;;5192382;28;19928;-86
2021/08/13 05:19:46;;;;;;;;;;;24.30;74.40;;;;;;5214612;28;19940;-88
2021/08/13 05:22:19;;;;;;;;;;;24.30;74.50;;;;;;5211152;28;20286;-87
2021/08/13 05:24:51;;;;;;;;;;;24.30;74.70;;;;;;5228456;28;20425;-86
2021/08/13 05:27:24;;;;;;;;;;;24.30;74.90;;;;;;5217748;28;19931;-88
2021/08/13 05:29:57;;;;;;;;;;;24.30;75.00;;;;;;5186880;28;19939;-86
2021/08/13 05:32:29;;;;;;;;;;;24.30;75.10;;;;;;5214748;28;19924;-87
2021/08/13 05:35:02;;;;;;;;;;;24.30;75.30;;;;;;5216987;28;20006;-87
2021/08/13 05:37:35;;;;;;;;;;;24.30;75.40;;;;;;5184659;28;20422;-86
2021/08/13 05:40:08;;;;;;;;;;;24.30;75.60;;;;;;5203709;28;19925;-85
2021/08/13 05:42:41;;;;;;;;;;;24.30;75.40;;;;;;5224077;28;20401;-84
2021/08/13 05:45:13;;;;;;;;;;;24.30;75.30;;;;;;5224057;28;19924;-84
2021/08/13 05:47:46;;;;;;;;;;;24.30;75.10;;;;;;5204588;28;19933;-85
2021/08/13 05:50:19;;;;;;;;;;;24.30;74.80;;;;;;5210156;28;19935;-84
2021/08/13 05:52:53;;;;;;;;;;;24.30;74.70;;;;;;5191973;28;19940;-83
2021/08/13 05:55:26;;;;;;;;;;;24.40;74.70;;;;;;5211942;28;19925;-84
2021/08/13 05:57:58;;;;;;;;;;;24.40;74.60;;;;;;5193455;28;19932;-84
2021/08/13 06:00:31;;;;;;;;;;;24.40;74.50;;;;;;5227796;28;19931;-87
2021/08/13 06:03:08;;;;;;;;;;;24.40;74.50;;;;;;5185071;28;19931;-87
2021/08/13 06:05:49;;;;;;;;;;;24.40;74.50;;;;;;5246049;28;19933;-86
2021/08/13 06:08:24;;;;;;;;;;;24.40;74.60;;;;;;5183425;28;19932;-86
2021/08/13 06:10:57;;;;;;;;;;;24.40;74.60;;;;;;5195484;28;20083;-86
2021/08/13 06:13:29;;;;;;;;;;;24.40;74.50;;;;;;5215751;28;20371;-88
2021/08/13 06:16:03;;;;;;;;;;;24.40;74.50;;;;;;5202403;28;19936;-84
2021/08/13 06:18:36;;;;;;;;;;;24.40;74.50;;;;;;5195714;28;19948;-86
2021/08/13 06:21:09;;;;;;;;;;;24.40;74.50;;;;;;5196507;28;19936;-87
2021/08/13 06:23:41;;;;;;;;;;;24.40;74.40;;;;;;5232688;28;19925;-85
2021/08/13 06:26:14;;;;;;;;;;;24.40;74.50;;;;;;5218961;28;19924;-88
2021/08/13 06:28:51;;;;;;;;;;;24.40;74.40;;;;;;5218739;28;20378;-84
2021/08/13 06:31:25;;;;;;;;;;;24.40;74.50;;;;;;5188858;28;19929;-87
2021/08/13 06:33:58;;;;;;;;;;;24.40;74.70;;;;;;5248181;28;19929;-86
2021/08/13 06:36:32;;;;;;;;;;;24.40;75.50;;;;;;5235611;28;20385;-86
2021/08/13 06:39:05;;;;;;;;;;;24.40;75.60;;;;;;5219402;28;19924;-87
2021/08/13 06:41:38;;;;;;;;;;;24.40;75.50;;;;;;5227951;28;20195;-88
2021/08/13 06:44:24;;;;;;;;;;;24.40;75.40;;;;;;5195279;28;19931;-85
2021/08/13 06:46:56;;;;;;;;;;;24.40;75.00;;;;;;5222451;28;19929;-85
2021/08/13 06:49:30;;;;;;;;;;;24.40;75.00;;;;;;5209142;28;20311;-88
2021/08/13 06:52:02;;;;;;;;;;;24.40;74.90;;;;;;5233807;28;19928;-85
2021/08/13 06:54:35;;;;;;;;;;;24.40;74.80;;;;;;5199862;28;24994;-84
2021/08/13 06:57:08;;;;;;;;;;;24.40;74.70;;;;;;5216853;28;19947;-87
2021/08/13 06:59:40;;;;;;;;;;;24.40;74.70;;;;;;5217804;28;19928;-88
2021/08/13 07:02:13;;;;;;;;;;;24.40;75.00;;;;;;5203377;28;20326;-86
2021/08/13 07:04:45;;;;;;;;;;;24.40;74.90;;;;;;5213320;28;19929;-88
2021/08/13 07:07:25;;;;;;;;;;;24.40;74.90;;;;;;5201776;28;19931;-85
2021/08/13 07:09:57;;;;;;;;;;;24.40;74.90;;;;;;5211460;28;19925;-86
2021/08/13 07:12:30;;;;;;;;;;;24.40;74.90;;;;;;5215671;28;19924;-86
2021/08/13 07:15:04;;;;;;;;;;;24.50;74.80;;;;;;5215456;28;19924;-87
2021/08/13 07:17:37;;;;;;;;;;;24.40;74.70;;;;;;5216738;28;19925;-88
2021/08/13 07:20:10;;;;;;;;;;;24.50;74.70;;;;;;5214198;28;20651;-86
2021/08/13 07:22:42;;;;;;;;;;;24.50;74.70;;;;;;5214225;28;19925;-86
2021/08/13 07:25:14;;;;;;;;;;;24.50;74.60;;;;;;5206760;28;19928;-84
2021/08/13 07:27:47;;;;;;;;;;;24.50;74.70;;;;;;5224939;28;20299;-85
2021/08/13 07:30:20;;;;;;;;;;;24.50;74.70;;;;;;5191721;28;19928;-83
2021/08/13 07:32:53;;;;;;;;;;;24.50;74.70;;;;;;5210786;28;19933;-83
2021/08/13 07:35:25;;;;;;;;;;;24.50;74.70;;;;;;5168832;28;19935;-85
2021/08/13 07:37:58;;;;;;;;;;;24.50;74.70;;;;;;5211225;28;19928;-85
2021/08/13 07:40:31;;;;;;;;;;;24.50;74.60;;;;;;5193996;28;19928;-84
2021/08/13 07:43:03;;;;;;;;;;;24.50;75.30;;;;;;5187109;28;19940;-86
2021/08/13 07:45:36;;;;;;;;;;;24.50;76.10;;;;;;5208636;28;19932;-85
2021/08/13 07:48:09;;;;;;;;;;;24.50;76.20;;;;;;5219828;28;20865;-83
2021/08/13 07:50:42;;;;;;;;;;;24.60;76.20;;;;;;5182365;28;19935;-84
2021/08/13 07:53:15;;;;;;;;;;;24.60;76.80;;;;;;5191863;28;19929;-85
2021/08/13 07:55:48;;;;;;;;;;;24.60;76.90;;;;;;5196682;28;19932;-85
2021/08/13 07:58:21;;;;;;;;;;;24.70;76.70;;;;;;5210126;28;19955;-85
2021/08/13 08:00:53;;;;;;;;;;;24.70;76.40;;;;;;5225400;28;19939;-84
2021/08/13 08:03:27;;;;;;;;;;;24.70;76.00;;;;;;5213583;28;19932;-87
2021/08/13 08:06:00;;;;;;;;;;;24.70;76.00;;;;;;5214070;28;19933;-88
2021/08/13 08:08:40;;;;;;;;;;;24.70;75.80;;;;;;5224764;28;19940;-90
2021/08/13 08:11:12;;;;;;;;;;;24.70;76.30;;;;;;5227310;28;19943;-90
2021/08/13 08:13:44;;;;;;;;;;;24.70;76.10;;;;;;5212090;28;19925;-88
2021/08/13 08:16:17;;;;;;;;;;;24.70;76.40;;;;;;5193683;28;20642;-87
2021/08/13 08:18:49;;;;;;;;;;;24.70;76.50;;;;;;5198214;28;19939;-89
2021/08/13 08:21:21;;;;;;;;;;;24.70;76.70;;;;;;5226401;28;20247;-90
2021/08/13 08:23:54;;;;;;;;;;;24.70;76.50;;;;;;5195235;28;20317;-88
2021/08/13 08:26:26;;;;;;;;;;;24.70;76.60;;;;;;5221389;28;19931;-88
2021/08/13 08:28:58;;;;;;;;;;;24.80;76.80;;;;;;5208470;28;19928;-90
2021/08/13 08:31:31;;;;;;;;;;;24.70;76.70;;;;;;5222737;28;19933;-89
2021/08/13 08:34:05;;;;;;;;;;;24.70;76.70;;;;;;5206905;28;20911;-88
2021/08/13 08:36:39;;;;;;;;;;;24.70;76.80;;;;;;5215952;28;19924;-92
2021/08/13 08:39:13;;;;;;;;;;;24.80;77.00;;;;;;5214898;28;19925;-90
2021/08/13 08:41:45;;;;;;;;;;;24.70;76.80;;;;;;5228276;28;19933;-89
2021/08/13 08:44:18;;;;;;;;;;;24.80;76.90;;;;;;5227556;28;19936;-89
2021/08/13 08:46:52;;;;;;;;;;;24.80;77.00;;;;;;5214869;28;20007;-87
2021/08/13 08:49:29;;;;;;;;;;;24.80;77.20;;;;;;5229561;28;19947;-89
2021/08/13 08:52:03;;;;;;;;;;;24.80;77.30;;;;;;5199402;28;19925;-92
2021/08/13 08:54:41;;;;;;;;;;;24.80;77.90;;;;;;5197849;28;19924;-87
2021/08/13 08:57:23;;;;;;;;;;;24.80;77.40;;;;;;5211807;28;19925;-88
2021/08/13 08:59:57;;;;;;;;;;;24.80;77.40;;;;;;5225820;28;20298;-92
2021/08/13 09:02:29;;;;;;;;;;;24.80;77.80;;;;;;5202296;28;19928;-88
2021/08/13 09:05:02;;;;;;;;;;;24.80;77.50;;;;;;5196465;28;19932;-89
2021/08/13 09:07:34;;;;;;;;;;;24.80;77.50;;;;;;5211787;28;19928;-92
2021/08/13 09:10:07;;;;;;;;;;;24.80;77.60;;;;;;5196966;28;20401;-90
2021/08/13 09:12:40;;;;;;;;;;;24.80;77.50;;;;;;5213237;28;19928;-89
2021/08/13 09:15:29;;;;;;;;;;;24.80;77.20;;;;;;5196295;28;19936;-88
2021/08/13 09:18:12;;;;;;;;;;;24.80;77.20;;;;;;5197621;28;22646;-89
2021/08/13 09:20:47;;;;;;;;;;;24.90;77.50;;;;;;5215228;28;19928;-91
2021/08/13 09:23:29;;;;;;;;;;;24.90;77.50;;;;;;5213660;28;19928;-91
2021/08/13 09:26:03;;;;;;;;;;;24.80;77.70;;;;;;5186826;28;19939;-89
2021/08/13 09:28:58;;;;;;;;;;;24.90;77.90;;;;;;5202916;28;19929;-91
2021/08/13 09:31:54;;;;;;;;;;;24.90;77.90;;;;;;5202980;28;20406;-90
2021/08/13 09:34:35;;;;;;;;;;;24.90;78.10;;;;;;5196399;28;19928;-90
2021/08/13 09:37:14;;;;;;;;;;;24.90;78.10;;;;;;5198296;28;19932;-91
2021/08/13 09:39:52;;;;;;;;;;;24.90;77.90;;;;;;5197040;28;20901;-90
2021/08/13 09:42:35;;;;;;;;;;;24.90;78.00;;;;;;5245628;28;20408;-91
2021/08/13 09:45:09;;;;;;;;;;;24.90;78.00;;;;;;5204715;28;19932;-93
2021/08/13 09:47:44;;;;;;;;;;;24.90;77.70;;;;;;5177315;28;19940;-90
2021/08/13 09:50:21;;;;;;;;;;;24.90;77.70;;;;;;5196639;28;20410;-90
2021/08/13 09:53:11;;;;;;;;;;;24.90;77.90;;;;;;5209941;28;19925;-90
2021/08/13 09:55:44;;;;;;;;;;;24.90;77.90;;;;;;5200451;28;19933;-91
2021/08/13 09:58:25;;;;;;;;;;;25.00;77.90;;;;;;5212609;28;19936;-90
2021/08/13 10:00:58;;;;;;;;;;;25.00;77.80;;;;;;5187632;28;20302;-89
2021/08/13 10:03:30;;;;;;;;;;;25.00;77.80;;;;;;5202958;28;19932;-89
2021/08/13 10:06:04;;;;;;;;;;;25.00;77.70;;;;;;5224399;28;19927;-90
2021/08/13 10:08:41;;;;;;;;;;;25.00;77.80;;;;;;5207263;28;19929;-90
2021/08/13 10:11:13;;;;;;;;;;;25.00;77.70;;;;;;5198511;28;19924;-90
2021/08/13 10:13:58;;;;;;;;;;;25.00;77.50;;;;;;5189816;28;19935;-89
2021/08/13 10:16:34;;;;;;;;;;;25.00;77.50;;;;;;5223185;28;19925;-89
2021/08/13 10:19:13;;;;;;;;;;;25.00;77.50;;;;;;5223175;28;19924;-90
2021/08/13 10:21:47;;;;;;;;;;;25.00;77.40;;;;;;5187220;28;19933;-91
2021/08/13 10:24:21;;;;;;;;;;;25.00;77.30;;;;;;5201754;28;20313;-89
2021/08/13 10:26:56;;;;;;;;;;;25.00;77.90;;;;;;5229074;28;19932;-90
2021/08/13 10:29:28;;;;;;;;;;;25.00;77.10;;;;;;5192793;28;19928;-90
2021/08/13 10:32:01;;;;;;;;;;;25.00;77.00;;;;;;5192747;28;20299;-90
2021/08/13 10:34:34;;;;;;;;;;;25.00;76.80;;;;;;5203236;28;19936;-91
2021/08/13 10:37:13;;;;;;;;;;;25.00;76.90;;;;;;5202807;28;19924;-92
2021/08/13 10:39:50;;;;;;;;;;;25.10;76.80;;;;;;5189080;28;19932;-90
2021/08/13 10:42:26;;;;;;;;;;;25.00;76.80;;;;;;5179815;28;19940;-90
2021/08/13 10:45:03;;;;;;;;;;;25.10;76.80;;;;;;5204499;28;19925;-91
2021/08/13 10:47:37;;;;;;;;;;;25.00;76.60;;;;;;5174424;28;19925;-90
2021/08/13 10:50:15;;;;;;;;;;;25.10;76.50;;;;;;5194973;28;19925;-92
2021/08/13 10:52:51;;;;;;;;;;;25.10;76.50;;;;;;5180015;28;19932;-95
2021/08/13 10:55:45;;;;;;;;;;;25.10;76.40;;;;;;5193306;28;20448;-92
2021/08/13 10:58:41;;;;;;;;;;;25.10;76.40;;;;;;5243019;28;19931;-94
2021/08/13 11:01:27;;;;;;;;;;;25.10;76.40;;;;;;5231261;28;20240;-95
2021/08/13 11:04:06;;;;;;;;;;;25.10;76.80;;;;;;5243116;28;19929;-95
2021/08/13 11:06:44;;;;;;;;;;;25.20;76.70;;;;;;5218369;28;20298;-93
2021/08/13 11:09:20;;;;;;;;;;;25.30;76.10;;;;;;5228671;28;19940;-91
2021/08/13 11:11:57;;;;;;;;;;;25.40;75.90;;;;;;5215140;28;20476;-93
2021/08/13 11:14:34;;;;;;;;;;;25.50;75.70;;;;;;5221574;28;19936;-94
2021/08/13 11:17:27;;;;;;;;;;;25.60;75.10;;;;;;5207028;28;19979;-95
2021/08/13 11:20:00;;;;;;;;;;;25.80;74.70;;;;;;5207522;28;19924;-92
2021/08/13 11:22:39;;;;;;;;;;;25.90;74.30;;;;;;5199786;28;19925;-95
2021/08/13 11:25:13;;;;;;;;;;;26.00;73.90;;;;;;5215731;28;20388;-93
2021/08/13 11:28:07;;;;;;;;;;;26.10;73.70;;;;;;5231329;28;19932;-94
2021/08/13 11:30:42;;;;;;;;;;;26.10;73.40;;;;;;5216763;28;19928;-94
2021/08/13 11:33:25;;;;;;;;;;;26.20;73.40;;;;;;5215098;28;19929;-94
2021/08/13 11:36:00;;;;;;;;;;;26.20;73.50;;;;;;5217301;28;19925;-93
2021/08/13 11:38:43;;;;;;;;;;;26.30;73.50;;;;;;5210416;28;19928;-91
2021/08/13 11:41:22;;;;;;;;;;;26.30;73.10;;;;;;5219577;28;20222;-91
2021/08/13 11:44:01;;;;;;;;;;;26.40;72.80;;;;;;5189993;28;19931;-94
2021/08/13 11:46:37;;;;;;;;;;;26.50;72.80;;;;;;5211330;28;19925;-93
2021/08/13 11:49:15;;;;;;;;;;;26.60;72.40;;;;;;5205801;28;19931;-94
2021/08/13 11:51:49;;;;;;;;;;;26.70;72.40;;;;;;5217419;28;19924;-94
2021/08/13 11:54:26;;;;;;;;;;;26.70;72.00;;;;;;5213422;28;19924;-93
2021/08/13 11:57:18;;;;;;;;;;;26.80;71.90;;;;;;5210512;28;19931;-93
2021/08/13 11:59:52;;;;;;;;;;;26.90;72.10;;;;;;5211267;28;19928;-92
2021/08/13 12:02:28;;;;;;;;;;;27.00;71.60;;;;;;5246237;28;19932;-93
2021/08/13 12:05:08;;;;;;;;;;;27.00;71.40;;;;;;5209286;28;19924;-92
2021/08/13 12:07:41;;;;;;;;;;;27.10;71.40;;;;;;5221416;28;20413;-94
2021/08/13 12:10:15;;;;;;;;;;;27.20;71.20;;;;;;5212854;28;20289;-94
2021/08/13 12:12:49;;;;;;;;;;;27.20;71.20;;;;;;5216816;28;19929;-93
2021/08/13 12:15:28;;;;;;;;;;;27.20;71.20;;;;;;5223368;28;19931;-92
2021/08/13 12:18:04;;;;;;;;;;;27.30;71.20;;;;;;5227914;28;19947;-92
2021/08/13 12:20:38;;;;;;;;;;;27.40;71.00;;;;;;5225813;28;19935;-91
2021/08/13 12:23:10;;;;;;;;;;;27.40;70.80;;;;;;5192002;28;19936;-90
2021/08/13 12:25:46;;;;;;;;;;;27.50;70.70;;;;;;5210101;28;19959;-93
2021/08/13 12:28:28;;;;;;;;;;;27.60;70.60;;;;;;5216929;28;19933;-94
2021/08/13 12:31:05;;;;;;;;;;;27.60;70.40;;;;;;5210839;28;19924;-92
2021/08/13 12:33:39;;;;;;;;;;;27.60;70.20;;;;;;5228699;28;20317;-93
2021/08/13 12:36:16;;;;;;;;;;;27.70;70.10;;;;;;5204971;28;19931;-93
2021/08/13 12:38:55;;;;;;;;;;;27.70;69.90;;;;;;5235436;28;19925;-93
2021/08/13 12:41:28;;;;;;;;;;;27.80;70.00;;;;;;5186762;28;20397;-93
2021/08/13 12:44:01;;;;;;;;;;;27.80;69.80;;;;;;5220040;28;19936;-93
2021/08/13 12:46:34;;;;;;;;;;;27.80;69.80;;;;;;5211863;28;19924;-92
2021/08/13 12:49:08;;;;;;;;;;;27.80;69.70;;;;;;5229277;28;19925;-92
2021/08/13 12:51:44;;;;;;;;;;;27.80;69.70;;;;;;5229320;28;19931;-92
2021/08/13 12:54:34;;;;;;;;;;;27.80;69.70;;;;;;5208986;28;19932;-95
2021/08/13 12:57:12;;;;;;;;;;;27.80;70.00;;;;;;5210017;28;19929;-93
2021/08/13 12:59:51;;;;;;;;;;;27.80;69.70;;;;;;5209613;28;19947;-93
2021/08/13 13:02:26;;;;;;;;;;;27.80;69.30;;;;;;5205838;28;19931;-95
2021/08/13 13:05:02;;;;;;;;;;;27.80;69.40;;;;;;5205835;28;19975;-93
2021/08/13 13:07:38;;;;;;;;;;;27.80;69.20;;;;;;5225595;28;19928;-93
2021/08/13 13:10:21;;;;;;;;;;;27.80;69.20;;;;;;5202596;28;20386;-93
2021/08/13 13:12:54;;;;;;;;;;;27.70;69.00;;;;;;5189764;28;19924;-94
2021/08/13 13:15:31;;;;;;;;;;;27.70;69.00;;;;;;5234884;28;19935;-92
2021/08/13 13:18:09;;;;;;;;;;;27.70;69.00;;;;;;5198995;28;19924;-94
2021/08/13 13:20:42;;;;;;;;;;;27.70;68.90;;;;;;5237737;28;19924;-90
2021/08/13 13:23:33;;;;;;;;;;;27.70;68.90;;;;;;5241203;28;20408;-93
2021/08/13 13:26:16;;;;;;;;;;;27.70;68.90;;;;;;5211323;28;19928;-94
2021/08/13 13:28:50;;;;;;;;;;;27.70;68.90;;;;;;5230448;28;20420;-93
2021/08/13 13:31:47;;;;;;;;;;;27.70;68.90;;;;;;5213618;28;19924;-94
2021/08/13 13:35:01;;;;;;;;;;;27.60;68.80;;;;;;5234043;28;19924;-94
2021/08/13 13:37:53;;;;;;;;;;;27.60;68.70;;;;;;5225256;28;20352;-94
2021/08/13 13:40:30;;;;;;;;;;;27.60;68.50;;;;;;5213271;28;19931;-93
2021/08/13 13:43:03;;;;;;;;;;;27.60;68.60;;;;;;5228034;28;19935;-91
2021/08/13 13:45:40;;;;;;;;;;;27.60;68.40;;;;;;5230963;28;19924;-93
2021/08/13 13:48:14;;;;;;;;;;;27.60;68.50;;;;;;5209852;28;20340;-94
2021/08/13 13:50:46;;;;;;;;;;;27.60;68.40;;;;;;5204635;28;19928;-95
2021/08/13 13:53:19;;;;;;;;;;;27.60;68.40;;;;;;5225053;28;19925;-95
2021/08/13 13:55:51;;;;;;;;;;;27.60;68.50;;;;;;5203294;28;19933;-92
2021/08/13 13:58:24;;;;;;;;;;;27.50;68.20;;;;;;5221648;28;20813;-93
2021/08/13 14:00:56;;;;;;;;;;;27.50;68.10;;;;;;5218781;28;19924;-93
2021/08/13 14:03:29;;;;;;;;;;;27.50;68.00;;;;;;5225685;28;19925;-93
2021/08/13 14:06:02;;;;;;;;;;;27.50;68.00;;;;;;5242447;28;19935;-94
2021/08/13 14:08:35;;;;;;;;;;;27.50;67.80;;;;;;5213222;28;20235;-93
2021/08/13 14:11:09;;;;;;;;;;;27.50;68.20;;;;;;5236016;28;19929;-93
2021/08/13 14:13:42;;;;;;;;;;;27.50;68.30;;;;;;5200133;28;19929;-94
2021/08/13 14:16:14;;;;;;;;;;;27.50;68.10;;;;;;5215031;28;19924;-93
2021/08/13 14:18:50;;;;;;;;;;;27.50;68.20;;;;;;5237854;28;19924;-93
2021/08/13 14:21:23;;;;;;;;;;;27.50;68.20;;;;;;5217220;28;19935;-93
2021/08/13 14:23:58;;;;;;;;;;;27.50;68.30;;;;;;5246768;28;19925;-94
2021/08/13 14:26:30;;;;;;;;;;;27.50;68.30;;;;;;5216199;28;20012;-94
2021/08/13 14:29:02;;;;;;;;;;;27.50;68.40;;;;;;5210053;28;20076;-93
2021/08/13 14:31:35;;;;;;;;;;;27.50;68.40;;;;;;5216666;28;19936;-93
2021/08/13 14:34:07;;;;;;;;;;;27.50;69.10;;;;;;5211627;28;19935;-93
2021/08/13 14:36:42;;;;;;;;;;;27.50;68.90;;;;;;5218489;28;20401;-87
2021/08/13 14:39:14;;;;;;;;;;;27.50;69.00;;;;;;5213745;28;19935;-88
2021/08/13 14:41:47;;;;;;;;;;;27.50;68.90;;;;;;5185347;28;20033;-88
2021/08/13 14:44:20;;;;;;;;;;;27.50;68.80;;;;;;5189799;28;20448;-87
2021/08/13 14:46:52;;;;;;;;;;;27.50;68.80;;;;;;5189387;28;19929;-89
2021/08/13 14:49:26;;;;;;;;;;;27.50;69.00;;;;;;5208604;28;20020;-87
2021/08/13 14:51:59;;;;;;;;;;;27.50;69.10;;;;;;5197354;28;19932;-86
2021/08/13 14:54:31;;;;;;;;;;;27.50;69.20;;;;;;5192479;28;19932;-88
2021/08/13 14:57:04;;;;;;;;;;;27.50;69.30;;;;;;5175462;28;20461;-86
2021/08/13 14:59:36;;;;;;;;;;;27.50;69.30;;;;;;5180202;28;19936;-89
2021/08/13 15:02:09;;;;;;;;;;;27.50;69.30;;;;;;5190034;28;19928;-88
2021/08/13 15:04:41;;;;;;;;;;;27.50;69.40;;;;;;5177862;28;20751;-89